Time;durP1;ratioP1;P1;durP2;ratioP2;P2;SDS_P1;SDS_P2;PMS_P1;PMS_P2;Temp;Humidity;BMP_temperature;BMP_pressure;BME280_temperature;BME280_humidity;BME280_pressure;Samples;Min_cycle;Max_cycle;Signal;HPM_P1;HPM_P2
2022/12/30 00:00:44;;;;;;;14.63;2.77;;;;;;;5.62;100.00;99648.59;5012884;28;20033;-72
2022/12/30 00:03:10;;;;;;;10.02;3.35;;;;;;;5.60;100.00;99642.66;4991862;28;20505;-72
2022/12/30 00:05:35;;;;;;;10.97;2.77;;;;;;;5.62;100.00;99645.94;5007245;28;20022;-72
2022/12/30 00:08:00;;;;;;;17.17;4.17;;;;;;;5.55;100.00;99647.56;5007389;28;20035;-72
2022/12/30 00:10:26;;;;;;;15.73;3.60;;;;;;;5.53;100.00;99641.63;5006513;28;20041;-72
2022/12/30 00:35:07;;;;;;;11.98;3.15;;;;;;;5.48;100.00;99713.56;5013453;28;20499;-73
2022/12/30 00:37:32;;;;;;;17.65;4.13;;;;;;;5.47;100.00;99723.31;4989266;28;20021;-72
2022/12/30 00:39:57;;;;;;;21.00;4.67;;;;;;;5.54;100.00;99738.59;5009366;28;20482;-73
2022/12/30 00:45:07;;;;;;;11.43;3.25;;;;;;;5.62;100.00;99751.88;5006496;28;20045;-72
2022/12/30 00:47:33;;;;;;;16.50;3.38;;;;;;;5.61;100.00;99731.69;5005379;28;20025;-73
2022/12/30 00:58:13;;;;;;;17.90;3.78;;;;;;;5.61;100.00;99715.78;5020523;28;20041;-76
2022/12/30 01:00:38;;;;;;;15.68;2.95;;;;;;;5.61;100.00;99718.44;5017781;28;20036;-73
2022/12/30 01:03:05;;;;;;;15.20;3.53;;;;;;;5.59;100.00;99715.94;5003639;28;20065;-72
2022/12/30 01:05:31;;;;;;;13.93;3.60;;;;;;;5.64;100.00;99718.97;5012503;28;20030;-73
2022/12/30 01:07:56;;;;;;;15.30;3.23;;;;;;;5.65;100.00;99710.03;4998984;28;20136;-72
2022/12/30 01:10:21;;;;;;;19.60;4.23;;;;;;;5.69;100.00;99705.28;5007678;28;20049;-72
2022/12/30 01:12:47;;;;;;;21.43;3.47;;;;;;;5.63;100.00;99688.16;5011679;28;20028;-72
2022/12/30 01:15:13;;;;;;;11.13;3.90;;;;;;;5.59;100.00;99668.28;5008118;28;20048;-72
2022/12/30 01:17:38;;;;;;;16.35;3.75;;;;;;;5.61;100.00;99671.59;4992920;28;20764;-72
2022/12/30 01:20:05;;;;;;;13.53;3.80;;;;;;;5.60;100.00;99674.44;5010450;28;20037;-72
2022/12/30 01:22:31;;;;;;;14.27;4.25;;;;;;;5.57;100.00;99675.56;5010973;28;20041;-72
2022/12/30 01:24:56;;;;;;;19.08;5.10;;;;;;;5.51;100.00;99657.66;5016284;28;20018;-72
2022/12/30 01:27:22;;;;;;;10.80;3.57;;;;;;;5.53;100.00;99674.22;5009548;28;20030;-74
2022/12/30 01:29:48;;;;;;;15.30;3.93;;;;;;;5.43;100.00;99653.16;5011159;28;20890;-72
2022/12/30 01:32:16;;;;;;;13.70;3.95;;;;;;;5.43;100.00;99670.81;4992054;28;20277;-72
2022/12/30 01:34:41;;;;;;;15.20;3.20;;;;;;;5.42;100.00;99671.81;4993147;28;20473;-72
2022/12/30 01:37:07;;;;;;;22.42;4.25;;;;;;;5.46;100.00;99681.94;5009191;28;20026;-72
2022/12/30 01:39:33;;;;;;;14.77;4.72;;;;;;;5.49;100.00;99676.34;5020930;28;20088;-73
2022/12/30 01:41:58;;;;;;;15.38;3.97;;;;;;;5.47;100.00;99674.84;4997006;28;20038;-72
2022/12/30 01:44:45;;;;;;;16.80;3.77;;;;;;;5.48;100.00;99687.94;4993437;28;20045;-72
2022/12/30 01:47:18;;;;;;;17.45;4.25;;;;;;;5.52;100.00;99687.59;5012890;28;20288;-72
2022/12/30 01:49:46;;;;;;;17.02;3.75;;;;;;;5.46;100.00;99689.88;5009887;28;20045;-72
2022/12/30 01:52:15;;;;;;;16.88;3.83;;;;;;;5.39;100.00;99701.25;5002532;28;20584;-72
2022/12/30 01:54:40;;;;;;;10.30;2.95;;;;;;;5.49;100.00;99725.81;5007735;28;20674;-72
2022/12/30 01:57:07;;;;;;;19.13;5.45;;;;;;;5.44;100.00;99722.81;5002772;28;20040;-72
2022/12/30 01:59:33;;;;;;;15.88;3.97;;;;;;;5.46;100.00;99748.13;5011642;28;20041;-72
2022/12/30 02:01:59;;;;;;;21.33;4.35;;;;;;;5.57;100.00;99751.50;5008109;28;20497;-72
2022/12/30 02:04:27;;;;;;;16.48;5.57;;;;;;;5.57;100.00;99743.56;5012284;28;20065;-72
2022/12/30 02:06:58;;;;;;;16.40;4.18;;;;;;;5.58;100.00;99734.66;5014063;28;20030;-72
2022/12/30 02:09:29;;;;;;;17.77;4.32;;;;;;;5.62;100.00;99741.28;5013515;28;20042;-72
2022/12/30 02:11:57;;;;;;;14.23;3.90;;;;;;;5.59;100.00;99728.34;5001661;28;20058;-72
2022/12/30 02:14:23;;;;;;;12.98;3.83;;;;;;;5.55;100.00;99725.19;5013931;28;20607;-72
2022/12/30 02:17:13;;;;;;;19.38;3.90;;;;;;;5.58;100.00;99732.81;5027302;28;20037;-72
2022/12/30 02:20:19;;;;;;;17.40;3.95;;;;;;;5.58;100.00;99739.94;5014241;28;20036;-72
2022/12/30 02:22:59;;;;;;;;;;;;;;;5.58;100.00;99735.47;5012732;28;20034;-72
2022/12/30 02:25:46;;;;;;;20.63;4.00;;;;;;;5.63;100.00;99732.38;5014676;28;19917;-72
2022/12/30 02:28:28;;;;;;;23.58;5.50;;;;;;;5.64;100.00;99740.16;5016219;28;20605;-72
2022/12/30 02:31:19;;;;;;;27.60;4.00;;;;;;;5.65;100.00;99725.09;5018883;28;20058;-72
2022/12/30 02:34:07;;;;;;;16.67;3.50;;;;;;;5.63;100.00;99727.06;5013738;28;20040;-72
2022/12/30 02:36:45;;;;;;;21.88;4.53;;;;;;;5.62;100.00;99734.19;4974230;28;20042;-72
2022/12/30 02:39:35;;;;;;;19.35;4.05;;;;;;;5.64;100.00;99745.47;5011257;28;20243;-72
2022/12/30 02:45:10;;;;;;;20.35;4.55;;;;;;;5.67;100.00;99752.25;4998821;28;20052;-72
2022/12/30 02:47:43;;;;;;;16.55;3.88;;;;;;;5.65;100.00;99744.47;5008522;28;20099;-72
2022/12/30 02:53:01;;;;;;;18.55;3.90;;;;;;;5.63;100.00;99738.47;4994751;28;20036;-72
2022/12/30 02:55:27;;;;;;;17.58;3.47;;;;;;;5.65;100.00;99738.34;5013543;28;20029;-72
2022/12/30 02:57:52;;;;;;;22.65;5.40;;;;;;;5.71;100.00;99737.69;5012190;28;20103;-72
2022/12/30 03:06:13;;;;;;;18.35;6.10;;;;;;;5.70;100.00;99709.56;4995083;28;20096;-72
2022/12/30 03:08:44;;;;;;;21.27;3.60;;;;;;;5.72;100.00;99699.66;5014792;28;20038;-72
2022/12/30 03:11:16;;;;;;;17.52;3.38;;;;;;;5.73;100.00;99680.13;5012214;28;20037;-72
2022/12/30 03:14:09;;;;;;;19.90;3.95;;;;;;;5.77;100.00;99675.34;5012421;28;20041;-72
2022/12/30 03:17:17;;;;;;;13.55;3.40;;;;;;;5.77;100.00;99676.16;5011731;28;20048;-72
2022/12/30 03:19:48;;;;;;;18.60;4.50;;;;;;;5.75;100.00;99672.84;4979474;28;20501;-72
2022/12/30 03:27:49;;;;;;;14.00;3.90;;;;;;;5.78;100.00;99688.41;4964649;28;20069;-71
2022/12/30 03:30:16;;;;;;;15.25;3.63;;;;;;;5.77;100.00;99681.47;4981046;28;20133;-72
2022/12/30 03:32:42;;;;;;;22.50;4.57;;;;;;;5.74;100.00;99680.97;4978838;28;20264;-71
2022/12/30 03:35:08;;;;;;;19.20;4.03;;;;;;;5.72;100.00;99699.66;4965840;28;20431;-71
2022/12/30 03:37:39;;;;;;;21.00;4.05;;;;;;;5.82;100.00;99716.25;4979767;28;20771;-71
2022/12/30 03:40:12;;;;;;;20.25;3.95;;;;;;;5.75;100.00;99712.56;4982483;28;20117;-71
2022/12/30 03:42:37;;;;;;;12.27;3.03;;;;;;;5.71;100.00;99709.41;4980347;28;20129;-71
2022/12/30 03:45:04;;;;;;;23.60;3.80;;;;;;;5.75;100.00;99715.22;4980679;28;20050;-71
2022/12/30 03:47:30;;;;;;;18.70;4.68;;;;;;;5.76;100.00;99714.25;4978818;28;20034;-71
2022/12/30 03:49:55;;;;;;;16.23;3.70;;;;;;;5.75;100.00;99712.56;4991260;28;20052;-71
2022/12/30 03:52:21;;;;;;;20.03;3.87;;;;;;;5.75;100.00;99707.28;5017255;28;20400;-71
2022/12/30 03:54:48;;;;;;;18.83;4.30;;;;;;;5.77;100.00;99729.13;5007454;28;20548;-71
2022/12/30 03:57:13;;;;;;;19.77;4.53;;;;;;;5.73;100.00;99725.13;5006988;28;20069;-71
2022/12/30 03:59:40;;;;;;;17.45;4.32;;;;;;;5.71;100.00;99729.75;5011872;28;20029;-71
2022/12/30 04:02:05;;;;;;;;;;;;;;;5.72;100.00;99721.66;5010002;28;20041;-71
2022/12/30 04:04:30;;;;;;;20.52;3.45;;;;;;;5.67;100.00;99723.13;5012933;28;19917;-71
2022/12/30 04:06:56;;;;;;;16.70;3.53;;;;;;;5.65;100.00;99725.09;5011420;28;20064;-72
2022/12/30 04:09:21;;;;;;;15.47;4.07;;;;;;;5.63;100.00;99742.97;5012184;28;20064;-72
2022/12/30 04:11:46;;;;;;;21.60;4.83;;;;;;;5.64;100.00;99749.91;4996844;28;20463;-72
2022/12/30 04:14:12;;;;;;;19.83;3.70;;;;;;;5.67;100.00;99750.44;5015157;28;20045;-72
2022/12/30 04:16:37;;;;;;;16.57;4.67;;;;;;;5.71;100.00;99757.09;5013018;28;20029;-72
2022/12/30 04:19:03;;;;;;;26.50;4.37;;;;;;;5.68;100.00;99741.50;5007864;28;20088;-72
2022/12/30 04:21:28;;;;;;;14.95;3.85;;;;;;;5.68;100.00;99753.91;5010879;28;20602;-72
2022/12/30 04:23:54;;;;;;;17.43;3.80;;;;;;;5.74;100.00;99752.47;5020687;28;20120;-72
2022/12/30 04:26:19;;;;;;;15.80;3.00;;;;;;;5.77;100.00;99747.69;5020177;28;20068;-72
2022/12/30 04:28:44;;;;;;;10.60;3.03;;;;;;;5.74;100.00;99728.63;5014226;28;20061;-72
2022/12/30 04:31:10;;;;;;;31.07;4.67;;;;;;;5.79;100.00;99727.16;5014621;28;20304;-72
2022/12/30 04:33:35;;;;;;;19.13;4.50;;;;;;;5.77;100.00;99728.31;5007366;28;20958;-72
2022/12/30 04:36:00;;;;;;;20.07;3.40;;;;;;;5.73;100.00;99733.09;5010886;28;20113;-72
2022/12/30 04:38:27;;;;;;;22.00;3.70;;;;;;;5.74;100.00;99724.16;4987153;28;20539;-72
2022/12/30 04:40:52;;;;;;;22.10;2.97;;;;;;;5.71;100.00;99724.47;5010102;28;20069;-72
2022/12/30 04:43:18;;;;;;;22.10;3.23;;;;;;;5.68;100.00;99744.13;5011045;28;20131;-72
2022/12/30 04:45:44;;;;;;;23.83;4.50;;;;;;;5.70;100.00;99742.16;5008223;28;20312;-72
2022/12/30 04:48:09;;;;;;;15.32;3.38;;;;;;;5.66;100.00;99747.94;5026184;28;20032;-72
2022/12/30 04:50:35;;;;;;;21.83;4.30;;;;;;;5.71;100.00;99761.53;5012273;28;20038;-72
2022/12/30 04:53:00;;;;;;;12.00;3.67;;;;;;;5.63;100.00;99774.72;5003019;28;20046;-72
2022/12/30 04:55:25;;;;;;;22.97;3.50;;;;;;;5.65;100.00;99792.13;5012723;28;20050;-72
2022/12/30 04:57:51;;;;;;;14.82;5.65;;;;;;;5.62;100.00;99807.47;5010433;28;20079;-71
2022/12/30 05:00:16;;;;;;;29.73;5.23;;;;;;;5.52;100.00;99828.75;5010445;28;20128;-72
2022/12/30 05:02:42;;;;;;;23.08;4.47;;;;;;;5.60;100.00;99842.06;5011843;28;20025;-71
2022/12/30 05:05:08;;;;;;;24.40;4.67;;;;;;;5.57;100.00;99839.75;5001547;28;20060;-72
2022/12/30 05:07:33;;;;;;;18.92;3.85;;;;;;;5.54;100.00;99847.16;5001249;28;20038;-72
2022/12/30 05:09:59;;;;;;;17.60;4.05;;;;;;;5.53;100.00;99854.25;5018295;28;20034;-71
2022/12/30 05:12:24;;;;;;;16.33;3.60;;;;;;;5.59;100.00;99860.75;5013270;28;20026;-72
2022/12/30 05:14:49;;;;;;;22.47;4.67;;;;;;;5.65;100.00;99860.16;5016940;28;20061;-72
2022/12/30 05:17:15;;;;;;;15.40;4.17;;;;;;;5.57;100.00;99841.53;5009251;28;20041;-72
2022/12/30 05:19:40;;;;;;;18.55;4.43;;;;;;;5.56;100.00;99847.81;5010477;28;20138;-72
2022/12/30 05:22:06;;;;;;;20.83;3.40;;;;;;;5.57;100.00;99854.78;5010286;28;20033;-72
2022/12/30 05:27:15;;;;;;;18.95;3.92;;;;;;;5.57;100.00;99850.34;5009212;28;20483;-72
2022/12/30 05:29:40;;;;;;;12.97;3.43;;;;;;;5.60;100.00;99852.66;4993477;28;20043;-71
2022/12/30 05:32:06;;;;;;;16.97;3.70;;;;;;;5.60;100.00;99860.59;5015928;28;20040;-71
2022/12/30 05:34:31;;;;;;;20.43;4.30;;;;;;;5.65;100.00;99862.81;5012240;28;20044;-71
2022/12/30 05:36:56;;;;;;;19.77;4.33;;;;;;;5.63;100.00;99856.81;5009937;28;20021;-71
2022/12/30 05:39:22;;;;;;;13.83;4.37;;;;;;;5.55;100.00;99838.19;5015381;28;20121;-72
2022/12/30 05:41:47;;;;;;;26.60;4.67;;;;;;;5.48;100.00;99830.06;5007928;28;20029;-71
2022/12/30 05:44:12;;;;;;;19.77;5.10;;;;;;;5.34;100.00;99836.72;5014471;28;20087;-71
2022/12/30 05:46:38;;;;;;;23.77;4.67;;;;;;;5.20;100.00;99850.47;5018814;28;20033;-71
2022/12/30 05:49:03;;;;;;;16.20;3.53;;;;;;;5.18;100.00;99870.94;5016631;28;20103;-72
2022/12/30 05:51:29;;;;;;;24.73;4.28;;;;;;;5.08;100.00;99890.38;5018203;28;20639;-72
2022/12/30 05:53:55;;;;;;;28.52;5.22;;;;;;;5.08;100.00;99913.34;5016677;28;20038;-72
2022/12/30 05:56:21;;;;;;;26.90;4.28;;;;;;;5.07;100.00;99925.72;5015964;28;20284;-72
2022/12/30 05:58:46;;;;;;;16.63;3.80;;;;;;;5.08;100.00;99945.94;5016793;28;20044;-72
2022/12/30 06:01:11;;;;;;;20.83;3.90;;;;;;;5.13;100.00;99952.56;5022157;28;20435;-71
2022/12/30 06:03:37;;;;;;;18.63;3.87;;;;;;;5.04;100.00;99959.59;5018393;28;20029;-72
2022/12/30 06:06:05;;;;;;;20.37;4.17;;;;;;;5.06;100.00;99978.81;5014857;28;20300;-72
2022/12/30 06:08:31;;;;;;;22.80;3.65;;;;;;;5.05;100.00;99977.13;5016446;28;20343;-71
2022/12/30 06:10:56;;;;;;;32.58;4.78;;;;;;;5.02;100.00;99983.53;5022114;28;20037;-71
2022/12/30 06:13:21;;;;;;;22.98;4.78;;;;;;;5.03;100.00;99985.22;5017228;28;20037;-71
2022/12/30 06:15:47;;;;;;;18.93;5.03;;;;;;;5.01;100.00;99987.19;5016093;28;20072;-71
2022/12/30 06:18:12;;;;;;;41.77;5.87;;;;;;;5.02;100.00;99982.72;5014685;28;20073;-71
2022/12/30 06:20:37;;;;;;;19.67;4.00;;;;;;;4.99;100.00;99978.53;5013674;28;20029;-71
2022/12/30 06:23:05;;;;;;;18.63;4.97;;;;;;;4.96;100.00;99980.63;5016227;28;20029;-71
2022/12/30 06:25:32;;;;;;;15.50;3.85;;;;;;;4.88;100.00;99985.84;5024024;28;20479;-71
2022/12/30 06:27:57;;;;;;;28.67;5.20;;;;;;;4.89;100.00;99988.31;5015078;28;20045;-71
2022/12/30 06:30:23;;;;;;;14.97;4.00;;;;;;;5.03;100.00;100010.81;5015862;28;20487;-71
2022/12/30 06:32:48;;;;;;;15.43;3.70;;;;;;;5.06;100.00;100007.91;5029990;28;20065;-71
2022/12/30 06:35:14;;;;;;;23.17;2.97;;;;;;;5.08;100.00;100016.53;5019094;28;20037;-71
2022/12/30 06:37:39;;;;;;;23.73;5.43;;;;;;;5.10;100.00;100017.19;5022154;28;20033;-71
2022/12/30 06:40:06;;;;;;;20.37;6.23;;;;;;;5.14;100.00;100033.63;5018963;28;20552;-71
2022/12/30 06:42:31;;;;;;;21.20;4.20;;;;;;;5.13;100.00;100031.94;4998194;28;20463;-71
2022/12/30 06:44:57;;;;;;;18.63;3.10;;;;;;;5.07;100.00;100034.19;5021786;28;20061;-71
2022/12/30 06:47:22;;;;;;;14.93;3.70;;;;;;;5.06;100.00;100050.25;5027670;28;20043;-71
2022/12/30 06:49:48;;;;;;;13.10;4.10;;;;;;;5.00;100.00;100049.00;5005787;28;20486;-71
2022/12/30 06:52:13;;;;;;;14.63;3.83;;;;;;;4.95;100.00;100051.22;5020727;28;20037;-71
2022/12/30 06:54:39;;;;;;;22.70;4.28;;;;;;;4.88;100.00;100068.66;5019561;28;20530;-71
2022/12/30 06:57:04;;;;;;;16.67;3.93;;;;;;;4.81;100.00;100071.03;5012721;28;20483;-71
2022/12/30 06:59:30;;;;;;;20.95;3.80;;;;;;;4.76;100.00;100094.44;5013379;28;20402;-71
2022/12/30 07:01:55;;;;;;;21.67;4.47;;;;;;;4.75;100.00;100091.91;4992983;28;20026;-71
2022/12/30 07:04:20;;;;;;;20.27;4.30;;;;;;;4.81;100.00;100120.44;5012504;28;20077;-71
2022/12/30 07:06:46;;;;;;;24.55;4.65;;;;;;;4.81;100.00;100128.38;5033629;23;20037;-76
2022/12/30 07:09:11;;;;;;;27.20;4.50;;;;;;;4.84;100.00;100131.56;5022507;28;20072;-76
2022/12/30 07:11:37;;;;;;;26.17;4.20;;;;;;;4.92;100.00;100140.63;5027432;28;20033;-76
2022/12/30 07:14:02;;;;;;;21.63;4.27;;;;;;;4.90;100.00;100129.34;4993174;28;20030;-76
2022/12/30 07:16:27;;;;;;;22.77;4.77;;;;;;;4.86;100.00;100131.44;5018018;28;20037;-76
2022/12/30 07:18:54;;;;;;;20.00;4.70;;;;;;;4.96;100.00;100126.97;5013205;28;20036;-76
2022/12/30 07:21:19;;;;;;;19.13;4.25;;;;;;;4.95;100.00;100127.94;5047004;28;20120;-76
2022/12/30 07:23:45;;;;;;;12.40;4.43;;;;;;;4.94;100.00;100122.78;5038003;28;20995;-76
2022/12/30 07:26:10;;;;;;;21.55;4.75;;;;;;;4.77;100.00;100100.53;5006942;28;20120;-76
2022/12/30 07:28:36;;;;;;;19.57;4.87;;;;;;;4.86;100.00;100128.78;5037904;28;20099;-76
2022/12/30 07:31:01;;;;;;;21.20;4.70;;;;;;;4.90;100.00;100138.13;5009733;28;20352;-77
2022/12/30 07:33:27;;;;;;;15.32;4.32;;;;;;;4.81;100.00;100141.59;5027893;28;20057;-76
2022/12/30 07:35:52;;;;;;;15.63;6.03;;;;;;;4.88;100.00;100161.22;5026697;28;20033;-76
2022/12/30 07:38:17;;;;;;;19.97;4.57;;;;;;;4.96;100.00;100174.56;5027612;28;20264;-76
2022/12/30 07:40:43;;;;;;;18.30;4.00;;;;;;;5.00;100.00;100170.69;5027652;28;20124;-76
2022/12/30 07:43:08;;;;;;;27.20;4.43;;;;;;;5.08;100.00;100167.34;5028157;28;20029;-76
2022/12/30 07:45:35;;;;;;;30.20;5.60;;;;;;;5.07;100.00;100161.22;5009786;28;20036;-76
2022/12/30 07:48:00;;;;;;;22.25;5.78;;;;;;;5.05;100.00;100163.16;5031100;28;20866;-76
2022/12/30 07:50:26;;;;;;;20.20;5.70;;;;;;;5.13;100.00;100159.81;5009737;28;20091;-76
2022/12/30 07:52:51;;;;;;;19.13;6.03;;;;;;;5.12;100.00;100146.72;5027238;28;20470;-75
2022/12/30 07:55:16;;;;;;;16.90;4.27;;;;;;;5.08;100.00;100141.72;5012933;28;20044;-75
2022/12/30 07:57:42;;;;;;;25.47;5.87;;;;;;;5.10;100.00;100153.97;5029486;28;20029;-76
2022/12/30 08:00:09;;;;;;;17.67;4.83;;;;;;;5.15;100.00;100154.38;5023124;28;20037;-76
2022/12/30 08:02:39;;;;;;;16.58;5.45;;;;;;;5.13;100.00;100149.25;5043231;28;20025;-76
2022/12/30 08:05:06;;;;;;;37.90;7.00;;;;;;;5.13;100.00;100148.38;5027228;28;20045;-76
2022/12/30 08:07:33;;;;;;;25.60;7.55;;;;;;;5.08;100.00;100140.91;5009661;28;20482;-76
2022/12/30 08:09:58;;;;;;;26.90;7.25;;;;;;;5.17;100.00;100144.47;5031084;28;20051;-76
2022/12/30 08:12:23;;;;;;;26.37;7.40;;;;;;;5.14;100.00;100144.78;5028674;28;20033;-76
2022/12/30 08:14:49;;;;;;;22.23;5.53;;;;;;;5.14;100.00;100144.78;5028036;28;20029;-76
2022/12/30 08:17:14;;;;;;;27.93;6.03;;;;;;;5.11;100.00;100134.47;5026971;28;20079;-76
2022/12/30 08:19:39;;;;;;;15.90;5.73;;;;;;;5.16;100.00;100142.81;5021237;28;20040;-76
2022/12/30 08:22:05;;;;;;;16.07;6.23;;;;;;;5.20;100.00;100154.81;5026297;28;20030;-76
2022/12/30 08:24:30;;;;;;;27.42;6.93;;;;;;;5.26;100.00;100151.56;5020450;28;20037;-75
2022/12/30 08:26:56;;;;;;;30.23;8.13;;;;;;;5.16;100.00;100124.31;5008904;28;20052;-76
2022/12/30 08:29:21;;;;;;;19.77;7.30;;;;;;;5.33;100.00;100139.44;4993112;28;20048;-76
2022/12/30 08:31:49;;;;;;;21.33;7.50;;;;;;;5.36;100.00;100140.94;5012619;28;20040;-76
2022/12/30 08:34:17;;;;;;;27.20;7.20;;;;;;;5.37;100.00;100122.28;5010266;28;20033;-76
2022/12/30 08:36:43;;;;;;;21.15;8.88;;;;;;;5.34;100.00;100113.78;5034379;28;20045;-76
2022/12/30 08:39:08;;;;;;;23.40;6.93;;;;;;;5.36;100.00;100104.75;5025922;28;20096;-76
2022/12/30 08:41:37;;;;;;;18.23;7.30;;;;;;;5.35;100.00;100116.31;5026777;28;20108;-76
2022/12/30 08:44:04;;;;;;;30.60;8.27;;;;;;;5.35;100.00;100102.25;5026979;28;20298;-77
2022/12/30 08:46:32;;;;;;;27.35;7.80;;;;;;;5.27;100.00;100092.38;5026534;28;20080;-77
2022/12/30 08:48:57;;;;;;;24.13;7.57;;;;;;;5.28;100.00;100107.28;5017723;28;20595;-76
2022/12/30 08:51:23;;;;;;;25.53;7.20;;;;;;;5.39;100.00;100115.03;5026683;28;20079;-76
2022/12/30 08:53:49;;;;;;;24.77;7.68;;;;;;;5.41;100.00;100099.84;5004252;28;20116;-76
2022/12/30 08:56:16;;;;;;;28.08;7.72;;;;;;;5.43;100.00;100102.34;5008867;28;20069;-76
2022/12/30 08:58:43;;;;;;;17.65;5.53;;;;;;;5.54;100.00;100096.88;5008937;28;20049;-76
2022/12/30 09:01:20;;;;;;;17.92;6.47;;;;;;;5.54;100.00;100091.56;5026602;28;20473;-76
2022/12/30 09:03:47;;;;;;;20.13;7.20;;;;;;;5.47;100.00;100062.19;5022798;28;20037;-76
2022/12/30 09:06:15;;;;;;;17.63;6.75;;;;;;;5.48;100.00;100068.34;5016976;28;20029;-76
2022/12/30 09:08:41;;;;;;;24.02;7.55;;;;;;;5.61;100.00;100068.00;5020686;28;20117;-76
2022/12/30 09:11:16;;;;;;;26.88;8.05;;;;;;;5.36;100.00;100040.38;5008528;28;20033;-76
2022/12/30 09:13:42;;;;;;;22.00;7.60;;;;;;;5.26;100.00;100066.88;5021921;28;20112;-76
2022/12/30 09:16:11;;;;;;;25.15;7.18;;;;;;;5.53;100.00;100097.03;5016087;28;20501;-75
2022/12/30 09:18:37;;;;;;;22.42;6.78;;;;;;;5.35;100.00;100066.00;5020564;28;20068;-76
2022/12/30 09:21:03;;;;;;;16.92;7.38;;;;;;;5.46;100.00;100087.00;5012010;28;20501;-76
2022/12/30 09:23:29;;;;;;;19.27;7.18;;;;;;;5.37;100.00;100092.34;5012045;28;20036;-76
2022/12/30 09:25:54;;;;;;;23.35;6.10;;;;;;;5.19;100.00;100074.56;5042654;28;20029;-76
2022/12/30 09:28:19;;;;;;;24.10;7.17;;;;;;;5.21;100.00;100111.47;5024824;28;20117;-76
2022/12/30 09:30:45;;;;;;;18.77;6.77;;;;;;;5.16;100.00;100129.59;5025334;28;20342;-76
2022/12/30 09:33:10;;;;;;;20.48;6.78;;;;;;;5.02;100.00;100131.69;5025412;28;20045;-76
2022/12/30 09:35:36;;;;;;;18.90;6.40;;;;;;;4.90;100.00;100145.22;5025522;28;20073;-76
2022/12/30 09:38:02;;;;;;;27.73;8.27;;;;;;;5.07;100.00;100192.97;5008100;28;20033;-76
2022/12/30 09:40:58;;;;;;;24.60;6.70;;;;;;;5.04;100.00;100201.19;5025919;28;20486;-76
2022/12/30 09:43:52;;;;;;;21.50;6.68;;;;;;;4.97;100.00;100192.13;5020311;28;20037;-76
2022/12/30 09:46:41;;;;;;;26.80;6.30;;;;;;;4.94;100.00;100199.50;5025349;28;20037;-76
2022/12/30 09:49:28;;;;;;;14.15;5.03;;;;;;;4.92;100.00;100210.25;5035608;28;20052;-76
2022/12/30 09:52:03;;;;;;;17.48;6.00;;;;;;;4.93;100.00;100219.84;5023857;28;20061;-76
2022/12/30 09:54:29;;;;;;;21.35;6.63;;;;;;;4.98;100.00;100227.38;5025678;28;20037;-76
2022/12/30 09:57:30;;;;;;;;;;;;;;;5.03;100.00;100233.94;5039071;28;20035;-76
2022/12/30 09:59:48;;;;;;;19.73;5.05;;;;;;;4.93;100.00;100217.19;5028312;28;19921;-76
2022/12/30 10:02:33;;;;;;;16.85;6.97;;;;;;;4.89;100.00;100221.09;5006687;28;20057;-76
2022/12/30 10:04:59;;;;;;;35.53;8.03;;;;;;;4.92;100.00;100226.13;5000861;28;20032;-76
2022/12/30 10:07:41;;;;;;;18.45;7.18;;;;;;;5.03;100.00;100217.19;5006474;28;20331;-76
2022/12/30 10:10:17;;;;;;;20.85;6.47;;;;;;;5.07;100.00;100224.72;5006883;28;20061;-76
2022/12/30 10:12:50;;;;;;;;;;;;;;;5.08;100.00;100209.69;5024761;28;20036;-76
2022/12/30 10:15:36;;;;;;;19.55;6.65;;;;;;;5.13;100.00;100206.59;5042867;28;19924;-76
2022/12/30 10:18:17;;;;;;;31.42;9.27;;;;;;;5.19;100.00;100190.16;5024747;28;20041;-76
2022/12/30 10:21:01;;;;;;;28.58;7.88;;;;;;;5.32;100.00;100195.19;5018855;28;20052;-76
2022/12/30 10:23:51;;;;;;;30.45;8.93;;;;;;;5.40;100.00;100172.28;5006977;28;20116;-76
2022/12/30 10:26:46;;;;;;;15.27;7.13;;;;;;;5.40;100.00;100151.13;4995313;28;20037;-75
2022/12/30 10:29:17;;;;;;;25.30;6.40;;;;;;;5.75;100.00;100148.78;5013966;28;20041;-76
2022/12/30 10:31:44;;;;;;;18.92;7.53;;;;;;;6.03;100.00;100131.09;5007977;28;20111;-76
2022/12/30 10:34:23;;;;;;;25.20;6.53;;;;;;;6.12;100.00;100074.56;5020984;28;20458;-76
2022/12/30 10:37:00;;;;;;;17.70;6.88;;;;;;;6.31;100.00;100034.63;5033500;28;20425;-77
2022/12/30 10:39:30;;;;;;;15.95;5.72;;;;;;;5.90;100.00;99951.28;5027885;28;20126;-76
2022/12/30 10:42:23;;;;;;;21.55;7.35;;;;;;;6.05;100.00;99960.38;5013657;28;20044;-76
2022/12/30 10:44:55;;;;;;;17.90;6.20;;;;;;;6.02;100.00;99938.66;5026302;28;20099;-76
2022/12/30 10:47:51;;;;;;;19.30;6.05;;;;;;;6.07;100.00;99926.59;5024940;28;20048;-76
2022/12/30 10:50:39;;;;;;;27.02;6.97;;;;;;;5.97;100.00;99899.38;4994576;28;20033;-76
2022/12/30 10:53:13;;;;;;;23.92;6.25;;;;;;;6.49;100.00;99914.47;5012891;28;20038;-76
2022/12/30 10:55:54;;;;;;;17.55;4.78;;;;;;;6.36;100.00;99826.56;5028010;28;20042;-76
2022/12/30 10:58:26;;;;;;;18.95;4.90;;;;;;;6.27;100.00;99823.03;5019503;28;20037;-76
2022/12/30 11:00:52;;;;;;;20.63;6.40;;;;;;;6.26;100.00;99822.19;5005590;28;20033;-76
2022/12/30 11:03:30;;;;;;;15.57;5.13;;;;;;;6.44;100.00;99818.63;5013937;28;20018;-76
2022/12/30 11:05:57;;;;;;;24.35;6.07;;;;;;;6.25;100.00;99770.19;5022031;28;20045;-76
2022/12/30 11:08:31;;;;;;;21.92;6.13;;;;;;;6.25;100.00;99764.88;5028526;28;20057;-76
2022/12/30 11:11:05;;;;;;;18.98;5.15;;;;;;;6.15;100.00;99765.97;5015449;28;20053;-76
2022/12/30 11:16:22;;;;;;;19.65;5.60;;;;;;;5.95;100.00;99778.59;5026146;28;20033;-75
2022/12/30 11:18:48;;;;;;;18.95;5.53;;;;;;;6.02;100.00;99792.91;5025476;28;20037;-76
2022/12/30 11:21:42;;;;;;;28.67;6.10;;;;;;;6.03;100.00;99783.97;5032039;28;20032;-77
2022/12/30 11:24:15;;;;;;;15.48;4.80;;;;;;;6.00;100.00;99789.59;5021945;28;20049;-77
2022/12/30 11:26:46;;;;;;;25.95;5.25;;;;;;;5.83;100.00;99796.53;5027914;28;20479;-76
2022/12/30 11:29:16;;;;;;;14.73;4.13;;;;;;;5.80;100.00;99794.22;5018613;28;20041;-75
2022/12/30 11:31:47;;;;;;;18.58;5.50;;;;;;;5.84;100.00;99819.41;5015663;28;20099;-76
2022/12/30 11:34:36;;;;;;;19.83;5.20;;;;;;;6.20;100.00;99846.66;5028156;28;20485;-76
2022/12/30 11:37:33;;;;;;;13.60;4.43;;;;;;;6.01;100.00;99789.41;5021315;28;20072;-76
2022/12/30 11:40:28;;;;;;;11.07;4.63;;;;;;;5.99;100.00;99772.00;5026901;28;20033;-76
2022/12/30 11:43:12;;;;;;;17.58;4.45;;;;;;;6.22;100.00;99818.19;5027232;28;20030;-76
2022/12/30 11:45:40;;;;;;;15.77;4.28;;;;;;;6.37;100.00;99797.25;5024775;28;20119;-76
2022/12/30 11:48:17;;;;;;;17.85;3.58;;;;;;;6.02;100.00;99708.13;4998638;28;20033;-76
2022/12/30 11:50:51;;;;;;;13.90;4.35;;;;;;;6.09;100.00;99728.53;5026426;28;20041;-76
2022/12/30 11:53:17;;;;;;;23.80;4.65;;;;;;;5.98;100.00;99710.25;5021092;28;20052;-76
2022/12/30 11:55:50;;;;;;;18.70;3.38;;;;;;;6.17;100.00;99748.94;5009738;28;20133;-75
2022/12/30 11:58:17;;;;;;;11.77;3.35;;;;;;;6.32;100.00;99755.31;5021870;28;20045;-76
2022/12/30 12:00:46;;;;;;;21.42;4.95;;;;;;;6.41;100.00;99728.81;5009519;28;20433;-76
2022/12/30 12:03:17;;;;;;;13.20;3.78;;;;;;;6.21;100.00;99696.44;5027207;28;20038;-76
2022/12/30 12:05:44;;;;;;;14.02;3.47;;;;;;;6.18;100.00;99702.91;5023902;28;20037;-76
2022/12/30 12:08:26;;;;;;;13.13;3.53;;;;;;;6.17;100.00;99690.63;5008839;28;20486;-76
2022/12/30 12:10:58;;;;;;;13.90;3.17;;;;;;;6.22;100.00;99685.66;5031940;28;20064;-76
2022/12/30 12:13:28;;;;;;;11.73;2.80;;;;;;;6.19;100.00;99679.88;5027192;28;20508;-76
2022/12/30 12:15:57;;;;;;;16.98;3.22;;;;;;;6.17;100.00;99661.47;5009463;28;20555;-76
2022/12/30 12:18:35;;;;;;;18.75;2.88;;;;;;;6.28;100.00;99673.59;5025644;28;20041;-77
2022/12/30 12:21:13;;;;;;;19.63;3.40;;;;;;;6.44;100.00;99659.53;5026210;28;20060;-76
2022/12/30 12:23:50;;;;;;;15.15;3.03;;;;;;;6.12;100.00;99584.28;5025535;28;20125;-76
2022/12/30 12:26:22;;;;;;;15.07;3.83;;;;;;;6.10;100.00;99616.22;5009220;28;20052;-76
2022/12/30 12:28:50;;;;;;;19.38;4.25;;;;;;;6.14;100.00;99651.19;5008969;28;20601;-75
2022/12/30 12:31:46;;;;;;;20.33;3.92;;;;;;;6.14;100.00;99645.91;5026641;28;20562;-76